Flight Track Log - Related Links

Times and Time Zones

All times are in EDT time to prevent confusion due to time zone crossing. See the N762NC flight status page for this flight to view local times or setup timezone preferences in your user account.

Time Position Orientation Groundspeed Altitude Reporting Facility
EDT Latitude Longitude Course Direction KTS MPH feet Rate Location/Type
Wed 10:16:48 AM 33.6708 -84.3433 328° Northwest 439 505 3,100  Level Atlanta Center
Wed 10:17:34 AM 33.7167 -84.3000 38° Northeast 282 325 5,600 3,057 Climbing Atlanta TRACON
Wed 10:18:00 AM 33.9429 -84.5001 349° North  Level FlightAware Approximate
Wed 10:18:34 AM 33.8000 -84.3000 360° North 297 342 8,500  Level Atlanta TRACON
Wed 10:19:00 AM 34.0449 -84.5242 349° North  Level FlightAware Approximate
Wed 10:19:34 AM 33.8833 -84.3333 342° North 305 351 10,900  Level Atlanta TRACON
Wed 10:20:00 AM 34.1414 -84.5499 347° North  Level FlightAware Approximate
Wed 10:20:48 AM 33.9669 -84.3969 328° Northwest 359 413 13,200  Level Atlanta Center
Wed 10:21:00 AM 34.2371 -84.5949 328° Northwest  Level FlightAware Approximate
Wed 10:21:48 AM 34.0586 -84.4675 327° Northwest 359 413 15,200  Level Atlanta Center
Wed 10:22:48 AM 34.1397 -84.5281 328° Northwest 369 425 17,100 1,550 Climbing Atlanta Center
Wed 10:23:48 AM 34.2314 -84.5992 327° Northwest 386 444 18,300 1,500 Climbing Atlanta Center
Wed 10:24:48 AM 34.3250 -84.6675 329° Northwest 392 451 20,100 2,100 Climbing Atlanta Center
Wed 10:25:48 AM 34.4183 -84.7364 329° Northwest 397 457 22,500 1,800 Climbing Atlanta Center
Wed 10:26:48 AM 34.5139 -84.8053 329° Northwest 392 451 23,700 1,350 Climbing Atlanta Center
Wed 10:27:48 AM 34.6178 -84.8844 328° Northwest 400 460 25,200 1,150 Climbing Atlanta Center
Wed 10:28:48 AM 34.7072 -84.9458 331° Northwest 406 467 26,000 400 Climbing Atlanta Center
Wed 10:29:48 AM 34.8025 -85.0356 322° Northwest 419 482 26,000  Level Atlanta Center
Wed 10:30:48 AM 34.8681 -85.1628 302° West 434 499 26,000  Level Atlanta Center
Wed 10:31:48 AM 34.9022 -85.3078 286° West 434 499 26,000  Level Atlanta Center
Wed 10:32:48 AM 34.9278 -85.4525 282° West 434 499 26,000  Level Atlanta Center
Wed 10:33:48 AM 34.9575 -85.5922 285° West 434 499 26,000 -676 Level Atlanta Center
Wed 10:36:12 AM 35.0325 -85.9267 285° West 428 493 23,700 -1,059 Descending Memphis Center
Wed 10:37:12 AM 35.1050 -86.0319 310° West 411 473 22,400 -1,500 Descending Memphis Center
Wed 10:38:12 AM 35.1772 -86.1300 312° West 401 461 20,700 -1,550 Descending Memphis Center
Wed 10:39:12 AM 35.2733 -86.1964 331° Northwest 389 448 19,300 -850 Descending Memphis Center
Wed 10:40:12 AM 35.3833 -86.2392 342° North 375 432 19,000 -800 Descending Memphis Center
Wed 10:41:12 AM 35.4786 -86.2828 340° North 370 426 17,700 -2,200 Descending Memphis Center
Wed 10:42:12 AM 35.5717 -86.3269 339° North 365 420 14,600 -3,050 Descending Memphis Center
Wed 10:43:12 AM 35.6711 -86.3706 340° North 365 420 11,600 -1,850 Descending Memphis Center
Wed 10:44:12 AM 35.7544 -86.4278 331° Northwest 349 402 10,900 -550 Descending Memphis Center
Wed 10:45:12 AM 35.8392 -86.4725 337° Northwest 334 384 10,500 -750 Descending Memphis Center
Wed 10:46:12 AM 35.9172 -86.5022 343° North 305 351 9,400 -1,150 Descending Memphis Center
Wed 10:47:12 AM 35.9847 -86.5272 343° North 286 329 8,200 -1,150 Descending Memphis Center
Wed 10:48:12 AM 36.0608 -86.5594 341° North 286 329 7,100 -1,050 Descending Memphis Center
Wed 10:49:12 AM 36.1311 -86.5383 14° North 269 310 6,100 -800 Descending Memphis Center
Wed 10:50:12 AM 36.1994 -86.5272 North 257 296 5,500 -900 Descending Memphis Center
Wed 10:51:12 AM 36.2639 -86.5244 North 241 277 4,300 -1,100 Descending Memphis Center
Wed 10:52:12 AM 36.2806 -86.5853 289° West 173 199 3,300 -750 Descending Memphis Center
Wed 10:53:12 AM 36.2375 -86.6156 210° Southwest 133 153 2,800 -750 Descending Memphis Center
Wed 10:54:12 AM 36.1925 -86.6383 202° Southwest 152 175 1,800 -900 Descending Memphis Center
Wed 10:55:12 AM 36.1553 -86.6503 195° South 158 182 1,000 -800 Descending Memphis Center

Login

Don't have an account? Register now (free) for customized features, flight alerts, and more!